Time;durP1;ratioP1;P1;durP2;ratioP2;P2;SDS_P1;SDS_P2;PMS_P1;PMS_P2;Temp;Humidity;BMP_temperature;BMP_pressure;BME280_temperature;BME280_humidity;BME280_pressure;Samples;Min_cycle;Max_cycle;Signal;HPM_P1;HPM_P2
2022/03/09 00:01:52;;;;;;;24.55;22.42;;;2.10;99.90;;;;;;4998638;28;20041;-75
2022/03/09 00:04:19;;;;;;;25.10;22.70;;;2.10;99.90;;;;;;5016796;28;20038;-75
2022/03/09 00:06:46;;;;;;;24.88;22.55;;;2.10;99.90;;;;;;4993925;28;20084;-75
2022/03/09 00:09:14;;;;;;;24.45;22.02;;;2.10;99.90;;;;;;4992125;28;20305;-75
2022/03/09 00:11:41;;;;;;;27.23;23.60;;;2.00;99.90;;;;;;5007057;28;20062;-75
2022/03/09 00:14:08;;;;;;;25.02;22.90;;;1.90;99.90;;;;;;4993919;28;20735;-74
2022/03/09 00:16:35;;;;;;;25.38;23.08;;;1.90;99.90;;;;;;5008144;28;20045;-75
2022/03/09 00:19:07;;;;;;;24.77;22.55;;;1.90;99.90;;;;;;4974922;28;20578;-74
2022/03/09 00:21:34;;;;;;;25.17;22.77;;;2.10;99.90;;;;;;4991424;28;20046;-75
2022/03/09 00:24:01;;;;;;;25.08;22.92;;;2.30;99.90;;;;;;4991844;28;20069;-76
2022/03/09 00:26:29;;;;;;;26.00;23.48;;;2.30;99.90;;;;;;4974611;28;20053;-74
2022/03/09 00:28:55;;;;;;;25.45;23.30;;;2.20;99.90;;;;;;4991730;28;20475;-76
2022/03/09 00:31:22;;;;;;;26.88;24.63;;;2.30;99.90;;;;;;4981947;28;20113;-75
2022/03/09 00:33:49;;;;;;;26.77;24.50;;;2.20;99.90;;;;;;4991977;28;20096;-76
2022/03/09 00:36:17;;;;;;;26.35;23.88;;;2.10;99.90;;;;;;4991568;28;20371;-75
2022/03/09 00:38:44;;;;;;;26.35;23.73;;;2.00;99.90;;;;;;5007714;28;20140;-75
2022/03/09 00:41:10;;;;;;;26.30;24.02;;;2.00;99.90;;;;;;4991027;28;20112;-74
2022/03/09 00:43:37;;;;;;;27.02;24.73;;;1.90;99.90;;;;;;4990667;28;20056;-75
2022/03/09 00:46:04;;;;;;;25.58;23.48;;;1.80;99.90;;;;;;4991457;28;20045;-74
2022/03/09 00:48:35;;;;;;;26.02;23.80;;;1.60;99.90;;;;;;4974760;28;20175;-74
2022/03/09 00:51:02;;;;;;;26.52;23.98;;;1.50;99.90;;;;;;4974711;28;20511;-75
2022/03/09 00:53:29;;;;;;;26.20;23.75;;;1.40;99.90;;;;;;4993547;28;20056;-75
2022/03/09 00:55:55;;;;;;;28.08;25.20;;;1.40;99.90;;;;;;4993274;28;20444;-75
2022/03/09 00:58:22;;;;;;;26.40;23.95;;;1.30;99.90;;;;;;4992246;28;20230;-76
2022/03/09 01:00:49;;;;;;;27.08;24.30;;;1.10;99.90;;;;;;4986224;28;20046;-75
2022/03/09 01:03:16;;;;;;;27.38;24.60;;;0.90;99.90;;;;;;4994913;28;20091;-75
2022/03/09 01:05:43;;;;;;;25.77;23.33;;;0.80;99.90;;;;;;4990117;28;20555;-75
2022/03/09 01:08:10;;;;;;;26.98;24.40;;;0.80;99.90;;;;;;4991383;28;20239;-75
2022/03/09 01:10:39;;;;;;;26.15;23.75;;;0.70;99.90;;;;;;4988295;28;20049;-75
2022/03/09 01:13:06;;;;;;;36.55;28.35;;;0.70;99.90;;;;;;4992908;28;20053;-74
2022/03/09 01:15:33;;;;;;;59.30;34.50;;;0.70;99.90;;;;;;4974818;28;20053;-76
2022/03/09 01:18:00;;;;;;;57.50;36.28;;;0.70;99.90;;;;;;5003566;28;20060;-75
2022/03/09 01:20:27;;;;;;;51.88;32.72;;;0.70;99.90;;;;;;4988791;28;20378;-74
2022/03/09 01:22:54;;;;;;;39.70;28.73;;;0.80;99.90;;;;;;4974587;28;20037;-74
2022/03/09 01:25:21;;;;;;;32.10;28.52;;;0.70;99.90;;;;;;5004760;28;20030;-74
2022/03/09 01:27:48;;;;;;;32.85;27.38;;;0.80;99.90;;;;;;4990926;28;20077;-75
2022/03/09 01:30:15;;;;;;;29.95;26.95;;;0.70;99.90;;;;;;4972083;28;20180;-75
2022/03/09 01:32:41;;;;;;;27.42;25.02;;;0.60;99.90;;;;;;5005781;28;20403;-75
2022/03/09 01:35:08;;;;;;;28.40;25.42;;;0.70;99.90;;;;;;4990881;28;20668;-74
2022/03/09 01:37:36;;;;;;;27.13;24.35;;;0.70;99.90;;;;;;4990871;28;20049;-74
2022/03/09 01:40:03;;;;;;;27.92;25.25;;;0.60;99.90;;;;;;4972184;28;20096;-74
2022/03/09 01:42:31;;;;;;;28.65;25.98;;;0.70;99.90;;;;;;4978124;28;20065;-74
2022/03/09 01:45:03;;;;;;;27.73;25.20;;;0.70;99.90;;;;;;4990011;28;20137;-74
2022/03/09 01:47:31;;;;;;;28.13;25.05;;;0.70;99.90;;;;;;4989329;28;20464;-74
2022/03/09 01:49:57;;;;;;;28.17;25.55;;;0.60;99.90;;;;;;4990573;28;20062;-74
2022/03/09 01:52:25;;;;;;;26.23;23.75;;;0.60;99.90;;;;;;4990934;28;20734;-74
2022/03/09 01:54:54;;;;;;;27.25;24.70;;;0.60;99.90;;;;;;4990360;28;20157;-74
2022/03/09 01:57:22;;;;;;;27.52;24.80;;;0.60;99.90;;;;;;4992959;28;20822;-74
2022/03/09 01:59:53;;;;;;;26.98;24.48;;;0.60;99.90;;;;;;4992187;28;20053;-74
2022/03/09 02:02:19;;;;;;;26.92;24.60;;;0.60;99.90;;;;;;4987821;28;20077;-75
2022/03/09 02:04:47;;;;;;;26.75;24.17;;;0.70;99.90;;;;;;4992005;28;20058;-74
2022/03/09 02:07:14;;;;;;;28.02;24.77;;;0.90;99.90;;;;;;4990090;28;20064;-75
2022/03/09 02:09:47;;;;;;;27.05;24.33;;;0.90;99.90;;;;;;4990890;28;20069;-74
2022/03/09 02:12:18;;;;;;;25.52;23.15;;;0.90;99.90;;;;;;5003224;28;20842;-74
2022/03/09 02:14:51;;;;;;;25.13;23.02;;;0.60;99.90;;;;;;5005889;28;20128;-75
2022/03/09 02:17:25;;;;;;;26.92;24.48;;;0.60;99.90;;;;;;4975225;28;20057;-75
2022/03/09 02:19:53;;;;;;;;;;;0.50;99.90;;;;;;5006989;28;20503;-74
2022/03/09 02:22:20;;;;;;;24.90;22.67;;;0.30;99.90;;;;;;4989685;28;19925;-75
2022/03/09 02:24:48;;;;;;;25.52;23.17;;;0.10;99.90;;;;;;4991177;28;20050;-74
2022/03/09 02:27:16;;;;;;;26.85;24.38;;;0.00;99.90;;;;;;5006889;28;20050;-75
2022/03/09 02:29:43;;;;;;;26.27;23.88;;;0.00;99.90;;;;;;4988331;28;20116;-75
2022/03/09 02:32:10;;;;;;;26.45;24.00;;;-0.10;99.90;;;;;;4989325;28;20077;-75
2022/03/09 02:34:37;;;;;;;26.38;24.05;;;-0.20;99.90;;;;;;4980866;28;20058;-75
2022/03/09 02:37:06;;;;;;;26.83;24.42;;;-0.30;99.90;;;;;;5006794;28;20096;-74
2022/03/09 02:39:33;;;;;;;26.45;23.98;;;-0.40;99.90;;;;;;4990250;28;20586;-75
2022/03/09 02:42:00;;;;;;;26.58;23.83;;;-0.50;99.90;;;;;;4990762;28;20503;-75
2022/03/09 02:44:27;;;;;;;27.33;24.73;;;-0.50;99.90;;;;;;4998260;28;20069;-75
2022/03/09 02:46:54;;;;;;;26.52;24.15;;;-0.70;99.90;;;;;;4991296;28;20387;-75
2022/03/09 02:49:21;;;;;;;27.67;25.08;;;-0.70;99.90;;;;;;4994836;28;20288;-75
2022/03/09 02:51:48;;;;;;;27.65;24.98;;;-0.80;99.90;;;;;;4995962;28;20241;-73
2022/03/09 02:54:16;;;;;;;26.45;24.00;;;-0.70;99.90;;;;;;5007485;28;20046;-74
2022/03/09 02:56:43;;;;;;;26.88;24.17;;;-0.60;99.90;;;;;;4991844;28;20053;-76
2022/03/09 02:59:10;;;;;;;26.98;24.48;;;-0.40;99.90;;;;;;4991576;28;20046;-74
2022/03/09 03:01:37;;;;;;;25.38;22.65;;;-0.60;99.90;;;;;;4996247;28;20366;-74
2022/03/09 03:04:04;;;;;;;26.30;23.67;;;-0.80;99.90;;;;;;5008488;28;20440;-74
2022/03/09 03:06:31;;;;;;;25.00;22.70;;;-1.00;99.90;;;;;;4995424;28;20442;-73
2022/03/09 03:08:58;;;;;;;25.70;23.30;;;-1.30;99.90;;;;;;4993926;28;20153;-74
2022/03/09 03:11:25;;;;;;;24.15;21.98;;;-1.30;99.90;;;;;;5010595;28;20524;-74
2022/03/09 03:13:51;;;;;;;24.27;22.08;;;-1.30;99.90;;;;;;5014102;28;20060;-74
2022/03/09 03:16:18;;;;;;;25.30;22.65;;;-1.30;99.90;;;;;;4979302;28;20057;-74
2022/03/09 03:18:47;;;;;;;24.75;22.23;;;-1.30;99.90;;;;;;4997722;28;20432;-74
2022/03/09 03:21:14;;;;;;;25.02;22.58;;;-1.20;99.90;;;;;;4993139;28;20050;-73
2022/03/09 03:23:40;;;;;;;24.77;22.25;;;-1.20;99.90;;;;;;5008766;28;20054;-74
2022/03/09 03:26:07;;;;;;;24.92;22.23;;;-1.10;99.90;;;;;;4995466;28;20093;-73
2022/03/09 03:28:35;;;;;;;25.73;23.13;;;-1.00;99.90;;;;;;4992666;28;20050;-74
2022/03/09 03:31:02;;;;;;;24.10;21.65;;;-1.10;99.90;;;;;;4987674;28;20038;-74
2022/03/09 03:33:29;;;;;;;23.98;21.85;;;-1.20;99.90;;;;;;4991672;28;20049;-74
2022/03/09 03:35:56;;;;;;;26.30;23.95;;;-1.20;99.90;;;;;;5009960;28;20152;-74
2022/03/09 03:38:24;;;;;;;25.63;23.00;;;-1.30;99.90;;;;;;4975563;28;20054;-73
2022/03/09 03:40:52;;;;;;;25.17;22.88;;;-1.30;99.90;;;;;;4989917;28;20037;-74
2022/03/09 03:43:19;;;;;;;24.73;22.50;;;-1.50;99.90;;;;;;5009091;28;20056;-74
2022/03/09 03:45:46;;;;;;;24.70;22.10;;;-1.60;99.90;;;;;;4993738;28;20096;-74
2022/03/09 03:48:12;;;;;;;24.42;21.98;;;-1.70;99.90;;;;;;4994666;28;20049;-74
2022/03/09 03:50:39;;;;;;;24.50;22.13;;;-1.80;99.90;;;;;;4991874;28;20066;-76
2022/03/09 03:53:06;;;;;;;27.35;23.63;;;-1.70;99.90;;;;;;4995262;28;20050;-76
2022/03/09 03:55:33;;;;;;;24.42;22.05;;;-1.70;99.90;;;;;;4991402;28;20050;-74
2022/03/09 03:58:00;;;;;;;25.15;22.80;;;-1.90;99.90;;;;;;5007460;28;20081;-74
2022/03/09 04:00:27;;;;;;;24.70;22.15;;;-1.90;99.90;;;;;;4990363;28;20061;-74
2022/03/09 04:02:54;;;;;;;25.10;22.55;;;-2.10;99.90;;;;;;5009365;28;20069;-74
2022/03/09 04:05:21;;;;;;;28.40;24.35;;;-2.20;99.90;;;;;;5008545;28;20298;-76
2022/03/09 04:07:48;;;;;;;24.13;21.85;;;-2.30;99.90;;;;;;4997623;28;20049;-73
2022/03/09 04:10:15;;;;;;;26.00;22.73;;;-2.30;99.90;;;;;;4993157;28;20560;-73
2022/03/09 04:12:42;;;;;;;24.23;21.65;;;-2.20;99.90;;;;;;5007271;28;20268;-76
2022/03/09 04:15:09;;;;;;;29.15;22.70;;;-2.30;99.90;;;;;;4991937;28;20131;-75
2022/03/09 04:17:44;;;;;;;25.38;22.88;;;-2.30;99.90;;;;;;4989820;28;20058;-75
2022/03/09 04:20:12;;;;;;;;;;;-2.30;99.90;;;;;;4991315;28;20058;-75
2022/03/09 04:22:41;;;;;;;24.23;21.58;;;-2.30;99.90;;;;;;4988253;28;20246;-75
2022/03/09 04:25:08;;;;;;;23.92;21.48;;;-2.40;99.90;;;;;;4986179;28;20118;-74
2022/03/09 04:27:35;;;;;;;25.58;22.92;;;-2.40;99.90;;;;;;4992102;28;20504;-74
2022/03/09 04:30:03;;;;;;;24.20;21.60;;;-2.40;99.90;;;;;;4986691;28;20274;-74
2022/03/09 04:32:32;;;;;;;25.40;20.65;;;-2.30;99.90;;;;;;4992767;28;20450;-74
2022/03/09 04:34:58;;;;;;;22.80;20.10;;;-2.30;99.90;;;;;;4999990;28;20050;-74
2022/03/09 04:37:26;;;;;;;24.20;21.23;;;-2.30;99.90;;;;;;4990644;28;20042;-74
2022/03/09 04:39:53;;;;;;;25.35;21.30;;;-2.30;99.90;;;;;;4987752;28;20405;-74
2022/03/09 04:42:20;;;;;;;24.73;22.23;;;-2.20;99.90;;;;;;4989548;28;20061;-74
2022/03/09 04:44:47;;;;;;;25.52;22.85;;;-2.10;99.90;;;;;;4991084;28;20068;-75
2022/03/09 04:47:14;;;;;;;29.42;22.92;;;-2.00;99.90;;;;;;5006583;28;20316;-73
2022/03/09 04:49:41;;;;;;;29.23;23.30;;;-1.80;99.90;;;;;;5005571;28;20049;-73
2022/03/09 04:52:07;;;;;;;27.00;23.15;;;-1.80;99.90;;;;;;5005705;28;20086;-73
2022/03/09 04:54:34;;;;;;;25.48;22.55;;;-1.90;99.90;;;;;;5007658;28;20042;-73
2022/03/09 04:57:01;;;;;;;26.63;23.08;;;-1.80;99.90;;;;;;4992730;28;20038;-74
2022/03/09 04:59:29;;;;;;;27.65;23.40;;;-1.70;99.90;;;;;;4990229;28;20140;-73
2022/03/09 05:01:55;;;;;;;29.90;23.67;;;-1.80;99.90;;;;;;4999827;28;20041;-74
2022/03/09 05:04:22;;;;;;;27.20;24.38;;;-1.70;99.90;;;;;;4989667;28;20046;-73
2022/03/09 05:06:49;;;;;;;26.95;24.02;;;-1.70;99.90;;;;;;4986280;28;20046;-73
2022/03/09 05:09:16;;;;;;;29.00;24.15;;;-1.70;99.90;;;;;;5004838;28;20439;-75
2022/03/09 05:11:43;;;;;;;28.58;25.58;;;-1.80;99.90;;;;;;4989881;28;20515;-74
2022/03/09 05:14:10;;;;;;;32.83;26.65;;;-1.80;99.90;;;;;;5006609;28;20420;-74
2022/03/09 05:16:37;;;;;;;32.65;28.02;;;-1.80;99.90;;;;;;5006748;28;20104;-74
2022/03/09 05:19:04;;;;;;;28.55;25.85;;;-1.90;99.90;;;;;;4973715;28;20042;-73
2022/03/09 05:21:34;;;;;;;29.15;26.17;;;-1.80;99.90;;;;;;4988834;28;20363;-76
2022/03/09 05:24:01;;;;;;;28.80;25.83;;;-1.80;99.90;;;;;;4990819;28;20064;-75
2022/03/09 05:26:28;;;;;;;34.70;26.65;;;-1.80;99.90;;;;;;5005375;28;20136;-75
2022/03/09 05:28:57;;;;;;;29.27;25.20;;;-1.90;99.90;;;;;;4990431;28;20374;-75
2022/03/09 05:31:25;;;;;;;31.35;26.75;;;-1.90;99.90;;;;;;4982939;28;20516;-75
2022/03/09 05:33:52;;;;;;;29.55;26.05;;;-1.80;99.90;;;;;;4972929;28;20045;-75
2022/03/09 05:36:18;;;;;;;27.55;24.95;;;-1.60;99.90;;;;;;4989011;28;20128;-75
2022/03/09 05:38:45;;;;;;;28.55;25.08;;;-1.70;99.90;;;;;;4988707;28;20049;-75
2022/03/09 05:41:13;;;;;;;27.52;24.67;;;-1.90;99.90;;;;;;4986211;28;20057;-75
2022/03/09 05:43:40;;;;;;;32.17;28.77;;;-2.10;99.90;;;;;;4982681;28;20053;-75
2022/03/09 05:46:09;;;;;;;31.58;28.20;;;-2.10;99.90;;;;;;4989203;28;20042;-75
2022/03/09 05:48:37;;;;;;;29.83;26.70;;;-2.20;99.90;;;;;;4987563;28;20046;-74
2022/03/09 05:51:04;;;;;;;29.25;26.13;;;-2.20;99.90;;;;;;4987933;28;20121;-74
2022/03/09 05:53:31;;;;;;;31.13;27.58;;;-2.40;99.90;;;;;;4990127;28;20053;-74
2022/03/09 05:55:57;;;;;;;32.63;28.08;;;-2.50;99.90;;;;;;4987845;28;20045;-73
2022/03/09 05:58:24;;;;;;;30.33;26.70;;;-2.60;99.90;;;;;;5005179;28;20188;-74
2022/03/09 06:00:51;;;;;;;28.77;25.80;;;-2.60;99.90;;;;;;5004366;28;20087;-73
2022/03/09 06:03:18;;;;;;;33.33;25.83;;;-2.30;99.90;;;;;;4988051;28;20511;-74
2022/03/09 06:05:47;;;;;;;32.45;29.00;;;-2.30;99.90;;;;;;5005446;28;20050;-74
2022/03/09 06:08:13;;;;;;;32.20;29.00;;;-2.40;99.90;;;;;;4991116;28;20061;-74
2022/03/09 06:10:41;;;;;;;33.25;29.65;;;-2.40;99.90;;;;;;5003611;28;20305;-74
2022/03/09 06:13:13;;;;;;;30.73;27.52;;;-2.20;99.90;;;;;;4973987;28;20061;-73
2022/03/09 06:15:40;;;;;;;35.22;29.73;;;-2.30;99.90;;;;;;4988786;28;20073;-73
2022/03/09 06:18:06;;;;;;;33.05;29.48;;;-2.50;99.90;;;;;;4988818;28;20295;-73
2022/03/09 06:20:33;;;;;;;35.78;30.88;;;-2.50;99.90;;;;;;5003185;28;20508;-73
2022/03/09 06:23:00;;;;;;;36.85;31.15;;;-2.60;99.90;;;;;;5009515;28;20132;-73
2022/03/09 06:25:27;;;;;;;36.72;31.40;;;-2.60;99.90;;;;;;5015208;28;20060;-74
2022/03/09 06:27:54;;;;;;;35.38;31.60;;;-2.70;99.90;;;;;;4994868;28;20046;-73
2022/03/09 06:30:26;;;;;;;33.75;30.45;;;-2.70;99.90;;;;;;5002678;28;20053;-73
2022/03/09 06:32:54;;;;;;;34.92;30.77;;;-2.50;99.90;;;;;;5005851;28;20052;-73
2022/03/09 06:35:21;;;;;;;35.53;30.25;;;-2.50;99.90;;;;;;5004901;28;20061;-73
2022/03/09 06:37:48;;;;;;;32.05;28.85;;;-2.30;99.90;;;;;;4990306;28;20045;-73
2022/03/09 06:40:16;;;;;;;32.20;28.42;;;-2.40;99.90;;;;;;5006733;28;20045;-73
2022/03/09 06:42:43;;;;;;;28.88;25.95;;;-2.40;99.90;;;;;;4993371;28;20184;-75
2022/03/09 06:45:10;;;;;;;31.35;27.88;;;-2.20;99.90;;;;;;4994376;28;20665;-73
2022/03/09 06:47:38;;;;;;;29.52;26.65;;;-2.20;99.90;;;;;;5008646;28;20514;-73
2022/03/09 06:50:10;;;;;;;31.50;28.23;;;-2.00;99.90;;;;;;4993608;28;20085;-73
2022/03/09 06:52:38;;;;;;;29.60;26.35;;;-1.80;99.90;;;;;;5009926;28;20053;-73
2022/03/09 06:55:07;;;;;;;31.02;27.75;;;-1.70;99.90;;;;;;4992951;28;20367;-73
2022/03/09 06:57:36;;;;;;;30.80;27.80;;;-1.60;99.90;;;;;;4959974;28;20427;-73
2022/03/09 07:00:06;;;;;;;32.28;29.17;;;-1.50;99.90;;;;;;4953697;28;20070;-73
2022/03/09 07:02:34;;;;;;;32.72;29.83;;;-1.30;99.90;;;;;;4956184;28;20628;-75
2022/03/09 07:05:01;;;;;;;34.50;31.40;;;-1.20;99.90;;;;;;4991608;28;20080;-74
2022/03/09 07:07:28;;;;;;;35.08;31.70;;;-1.00;99.90;;;;;;5008184;28;20053;-73
2022/03/09 07:09:55;;;;;;;37.03;33.63;;;-0.90;99.90;;;;;;4991692;28;20425;-73
2022/03/09 07:12:22;;;;;;;35.95;32.72;;;-0.70;99.90;;;;;;5008352;28;20968;-73
2022/03/09 07:14:49;;;;;;;36.92;33.63;;;-0.50;99.90;;;;;;5037697;23;20060;-77
2022/03/09 07:17:16;;;;;;;35.42;32.60;;;-0.50;99.90;;;;;;4997569;28;20041;-80
2022/03/09 07:19:44;;;;;;;35.97;32.90;;;-0.30;99.90;;;;;;4987605;28;20054;-79
2022/03/09 07:22:11;;;;;;;35.90;32.70;;;-0.20;99.90;;;;;;5003559;28;20733;-78
2022/03/09 07:24:37;;;;;;;33.17;30.48;;;-0.10;99.90;;;;;;4987779;28;20330;-79
2022/03/09 07:27:04;;;;;;;33.33;30.42;;;0.20;99.90;;;;;;5043818;28;20040;-77
2022/03/09 07:29:31;;;;;;;35.45;32.50;;;0.50;99.90;;;;;;5029522;28;20476;-77
2022/03/09 07:31:58;;;;;;;33.85;31.02;;;0.60;99.90;;;;;;5003570;28;20033;-78
2022/03/09 07:34:26;;;;;;;34.30;31.52;;;1.00;99.90;;;;;;5043133;28;20057;-79
2022/03/09 07:36:58;;;;;;;33.75;31.20;;;1.30;99.90;;;;;;5030688;28;20045;-77
2022/03/09 07:39:29;;;;;;;34.85;31.90;;;1.60;99.90;;;;;;4991020;28;20051;-77
2022/03/09 07:41:59;;;;;;;34.38;31.70;;;1.80;99.90;;;;;;4991156;28;20041;-78
2022/03/09 07:44:28;;;;;;;32.47;30.08;;;2.10;99.90;;;;;;5023806;28;20037;-77
2022/03/09 07:46:54;;;;;;;33.78;30.67;;;2.30;99.90;;;;;;5007657;28;20057;-76
2022/03/09 07:49:22;;;;;;;33.67;31.17;;;2.50;99.90;;;;;;5007451;28;20372;-78
2022/03/09 07:51:49;;;;;;;34.75;31.92;;;2.70;99.90;;;;;;5039139;28;20049;-77
2022/03/09 07:54:17;;;;;;;33.22;30.95;;;2.90;99.90;;;;;;5019297;28;20057;-77
2022/03/09 07:56:44;;;;;;;33.92;30.90;;;3.10;99.90;;;;;;5006549;28;20041;-79
2022/03/09 07:59:11;;;;;;;32.72;30.42;;;3.20;99.90;;;;;;5007096;28;20049;-77
2022/03/09 08:01:40;;;;;;;32.92;30.42;;;3.30;99.90;;;;;;5022721;23;20049;-73
2022/03/09 08:04:07;;;;;;;34.40;31.88;;;3.50;99.90;;;;;;4985955;28;20077;-74
2022/03/09 08:06:37;;;;;;;34.33;31.85;;;3.60;99.90;;;;;;4991711;28;20457;-73
2022/03/09 08:09:07;;;;;;;33.38;30.98;;;3.80;99.90;;;;;;4961016;28;20926;-75
2022/03/09 08:11:33;;;;;;;32.83;30.30;;;4.00;99.90;;;;;;4976723;28;20108;-73
2022/03/09 08:14:00;;;;;;;34.83;31.75;;;4.20;99.90;;;;;;4979214;28;20139;-74
2022/03/09 08:16:27;;;;;;;35.03;32.25;;;4.60;99.90;;;;;;4995503;28;20096;-73
2022/03/09 08:18:54;;;;;;;34.55;32.03;;;4.90;99.90;;;;;;4991196;28;20705;-73
2022/03/09 08:21:32;;;;;;;35.17;32.53;;;5.20;99.90;;;;;;4961338;28;20043;-72
2022/03/09 08:23:59;;;;;;;33.22;30.90;;;5.50;99.90;;;;;;4963268;28;20065;-73
2022/03/09 08:26:26;;;;;;;35.42;32.63;;;5.80;99.90;;;;;;4958942;28;20121;-72
2022/03/09 08:28:53;;;;;;;34.45;31.70;;;6.20;99.90;;;;;;4977938;28;20065;-75
2022/03/09 08:31:20;;;;;;;35.35;32.55;;;6.50;99.90;;;;;;4976083;28;20049;-73
2022/03/09 08:33:47;;;;;;;34.67;31.83;;;6.70;99.90;;;;;;4964610;28;20487;-73
2022/03/09 08:36:14;;;;;;;34.42;31.85;;;6.90;99.90;;;;;;4974938;28;20619;-74
2022/03/09 08:38:41;;;;;;;37.80;34.75;;;6.90;99.90;;;;;;4974076;28;20057;-74
2022/03/09 08:41:08;;;;;;;37.92;35.08;;;6.80;99.90;;;;;;4960956;28;20599;-77
2022/03/09 08:43:34;;;;;;;38.13;35.55;;;6.80;99.90;;;;;;4974100;28;20053;-76
2022/03/09 08:46:01;;;;;;;37.97;35.30;;;6.80;99.90;;;;;;4983853;28;20045;-73
2022/03/09 08:48:29;;;;;;;38.03;35.17;;;6.90;99.90;;;;;;4982083;28;20061;-73
2022/03/09 08:50:56;;;;;;;36.92;34.38;;;7.30;99.90;;;;;;4979319;28;20092;-74
2022/03/09 08:53:23;;;;;;;36.80;34.03;;;7.30;99.90;;;;;;4986867;28;20045;-74
2022/03/09 08:55:50;;;;;;;38.50;35.60;;;7.30;99.90;;;;;;4973531;28;20154;-73
2022/03/09 08:58:16;;;;;;;38.55;35.75;;;7.30;99.90;;;;;;4955869;28;20508;-74
2022/03/09 09:00:44;;;;;;;38.03;35.03;;;7.20;99.90;;;;;;4974056;28;20081;-74
2022/03/09 09:03:11;;;;;;;38.25;35.47;;;7.20;99.90;;;;;;4957133;28;20050;-75
2022/03/09 09:05:38;;;;;;;36.97;34.47;;;7.10;99.90;;;;;;4961947;28;20105;-75
2022/03/09 09:08:06;;;;;;;38.22;35.53;;;7.40;99.90;;;;;;4957799;28;20050;-77
2022/03/09 09:10:34;;;;;;;40.20;37.55;;;7.50;99.90;;;;;;4960050;28;20239;-78
2022/03/09 09:13:03;;;;;;;39.13;36.45;;;7.50;99.90;;;;;;4964342;28;20614;-74
2022/03/09 09:15:29;;;;;;;40.72;37.67;;;7.50;99.90;;;;;;4967274;28;20589;-73
2022/03/09 09:18:00;;;;;;;40.15;37.45;;;7.60;99.90;;;;;;4963274;28;20439;-73
2022/03/09 09:20:48;;;;;;;40.60;37.85;;;7.90;99.90;;;;;;4963834;28;20053;-75
2022/03/09 09:23:15;;;;;;;40.70;37.83;;;7.90;99.90;;;;;;4960031;28;20174;-75
2022/03/09 09:25:44;;;;;;;41.30;38.25;;;7.50;99.90;;;;;;4973603;28;20070;-74
2022/03/09 09:28:11;;;;;;;41.30;38.28;;;7.60;99.90;;;;;;4960481;28;20062;-73
2022/03/09 09:30:37;;;;;;;40.10;37.20;;;7.80;99.90;;;;;;4956821;28;20042;-74
2022/03/09 09:33:05;;;;;;;41.22;38.13;;;7.50;99.90;;;;;;4969075;28;20132;-74
2022/03/09 09:35:33;;;;;;;39.67;37.08;;;7.60;99.90;;;;;;4972214;28;20046;-73
2022/03/09 09:38:06;;;;;;;40.65;37.60;;;7.50;99.90;;;;;;4957980;28;20056;-75
2022/03/09 09:45:12;;;;;;;39.28;36.33;;;7.60;99.90;;;;;;4986579;28;20108;-72
2022/03/09 09:47:39;;;;;;;37.25;34.47;;;7.70;99.90;;;;;;4969339;28;20045;-73
2022/03/09 09:50:06;;;;;;;39.10;36.10;;;7.80;99.90;;;;;;4985381;28;20064;-75
2022/03/09 09:52:33;;;;;;;38.05;35.40;;;8.20;99.90;;;;;;4970956;28;20743;-71
2022/03/09 09:55:02;;;;;;;35.17;32.83;;;8.50;99.90;;;;;;4985065;28;20530;-75
2022/03/09 09:57:30;;;;;;;36.97;34.38;;;8.70;99.90;;;;;;4968754;28;20050;-74
2022/03/09 09:59:58;;;;;;;37.08;34.38;;;8.70;99.90;;;;;;4986463;28;20042;-73
2022/03/09 10:02:25;;;;;;;34.47;31.90;;;8.20;99.90;;;;;;4986092;28;20296;-70
2022/03/09 10:04:53;;;;;;;36.10;33.05;;;8.10;99.90;;;;;;4984832;28;20042;-73
2022/03/09 10:07:20;;;;;;;37.13;34.47;;;8.30;99.90;;;;;;4955696;28;20058;-75
2022/03/09 10:09:47;;;;;;;34.78;32.15;;;8.60;99.90;;;;;;4984619;28;20074;-74
2022/03/09 10:12:24;;;;;;;35.20;32.53;;;8.90;99.90;;;;;;4966898;28;20053;-75
2022/03/09 10:14:56;;;;;;;35.42;32.60;;;9.20;99.90;;;;;;4969454;28;20081;-75
2022/03/09 10:17:30;;;;;;;36.15;33.28;;;9.40;99.90;;;;;;4971174;28;20046;-76
2022/03/09 10:20:11;;;;;;;36.17;33.25;;;9.50;99.90;;;;;;4969430;28;20053;-76
2022/03/09 10:22:49;;;;;;;34.92;32.22;;;9.30;99.90;;;;;;4968755;28;20041;-74
2022/03/09 10:25:24;;;;;;;41.95;39.08;;;9.10;99.90;;;;;;4984404;28;20060;-77
2022/03/09 10:27:52;;;;;;;42.55;38.80;;;8.70;99.90;;;;;;4952849;28;20119;-75
2022/03/09 10:30:29;;;;;;;42.08;39.20;;;8.80;99.90;;;;;;4967834;28;20045;-70
2022/03/09 10:32:56;;;;;;;44.17;40.97;;;8.80;99.90;;;;;;4968409;28;20092;-73
2022/03/09 10:35:29;;;;;;;43.33;40.22;;;9.10;99.90;;;;;;4968017;28;20058;-73
2022/03/09 10:38:07;;;;;;;44.42;41.13;;;9.40;99.90;;;;;;4986816;28;20042;-75
2022/03/09 10:40:46;;;;;;;43.38;40.00;;;9.70;99.90;;;;;;4967685;28;20730;-75
2022/03/09 10:43:27;;;;;;;43.65;40.50;;;10.00;99.90;;;;;;4988016;28;20049;-73
2022/03/09 10:46:07;;;;;;;43.17;40.17;;;10.20;99.90;;;;;;4987033;28;20551;-75
2022/03/09 10:48:54;;;;;;;43.97;40.97;;;10.40;99.90;;;;;;4969354;28;20046;-72
2022/03/09 10:51:48;;;;;;;43.20;40.45;;;10.20;99.90;;;;;;4984569;28;20100;-71
2022/03/09 10:54:26;;;;;;;43.20;40.33;;;9.80;99.90;;;;;;4979844;28;20562;-75
2022/03/09 10:57:13;;;;;;;42.95;40.13;;;10.10;99.90;;;;;;4984850;28;20117;-75
2022/03/09 10:59:49;;;;;;;43.03;40.13;;;10.00;99.90;;;;;;4988059;28;20466;-72
2022/03/09 11:02:19;;;;;;;42.25;39.35;;;10.40;99.60;;;;;;4964241;28;20049;-75
2022/03/09 11:05:09;;;;;;;44.00;40.95;;;10.30;99.60;;;;;;4958908;28;20133;-75
2022/03/09 11:07:37;;;;;;;43.22;40.10;;;10.40;99.70;;;;;;4986525;28;20108;-75
2022/03/09 11:10:09;;;;;;;43.08;40.22;;;10.70;99.40;;;;;;4986198;28;20042;-72
2022/03/09 11:12:36;;;;;;;41.72;38.90;;;11.10;99.40;;;;;;4969627;28;20049;-74
2022/03/09 11:15:06;;;;;;;43.67;40.67;;;11.20;98.10;;;;;;4969781;28;20041;-74
2022/03/09 11:17:34;;;;;;;42.42;39.67;;;11.10;97.20;;;;;;4985746;28;20371;-71
2022/03/09 11:20:02;;;;;;;44.22;41.03;;;11.00;97.20;;;;;;4967867;28;20038;-72
2022/03/09 11:22:29;;;;;;;43.97;41.17;;;11.00;97.60;;;;;;4987891;28;20724;-73
2022/03/09 11:24:56;;;;;;;44.83;41.88;;;10.90;96.70;;;;;;4981819;28;20244;-72
2022/03/09 11:27:24;;;;;;;44.78;41.72;;;10.80;97.60;;;;;;4969116;28;20073;-72
2022/03/09 11:29:54;;;;;;;45.65;42.75;;;11.00;97.50;;;;;;4987154;28;20610;-70
2022/03/09 11:32:35;;;;;;;44.17;41.40;;;10.90;97.80;;;;;;4968144;28;20106;-74
2022/03/09 11:35:02;;;;;;;44.63;41.72;;;10.80;97.40;;;;;;4987199;28;20317;-73
2022/03/09 11:37:38;;;;;;;44.22;41.25;;;11.20;97.40;;;;;;4985520;28;20123;-72
2022/03/09 11:40:10;;;;;;;43.78;41.05;;;11.20;96.70;;;;;;4984112;28;20060;-74
2022/03/09 11:42:42;;;;;;;44.90;41.72;;;11.00;96.30;;;;;;4988146;28;20489;-72
2022/03/09 11:45:15;;;;;;;41.58;38.97;;;11.30;96.50;;;;;;4968615;28;20076;-73
2022/03/09 11:47:57;;;;;;;42.40;39.20;;;11.30;95.50;;;;;;4974820;28;20128;-74
2022/03/09 11:50:26;;;;;;;44.83;41.78;;;10.90;94.80;;;;;;4973871;28;20299;-71
2022/03/09 11:53:05;;;;;;;43.70;40.72;;;10.90;95.50;;;;;;4988559;28;20053;-73
2022/03/09 11:55:34;;;;;;;43.67;40.95;;;10.90;95.40;;;;;;4988237;28;20498;-75
2022/03/09 11:58:05;;;;;;;44.13;41.08;;;11.10;95.10;;;;;;4971435;28;20463;-74
2022/03/09 12:00:32;;;;;;;43.42;40.47;;;10.80;95.20;;;;;;4967361;28;20045;-73
2022/03/09 12:02:59;;;;;;;42.10;39.40;;;10.90;93.80;;;;;;4968955;28;20416;-76
2022/03/09 12:05:34;;;;;;;45.50;42.38;;;11.30;94.30;;;;;;4968398;28;20046;-73
2022/03/09 12:08:01;;;;;;;45.30;41.83;;;11.30;93.40;;;;;;4972088;28;20220;-75
2022/03/09 12:10:52;;;;;;;45.00;42.00;;;11.50;93.80;;;;;;4987344;28;20444;-73
2022/03/09 12:13:33;;;;;;;43.35;40.40;;;11.60;95.00;;;;;;4980891;28;20058;-72
2022/03/09 12:17:28;;;;;;;46.85;43.85;;;11.80;92.30;;;;;;5018544;27;1232746;-74
2022/03/09 12:20:17;;;;;;;49.85;46.83;;;12.00;92.60;;;;;;5055024;28;20048;-75
2022/03/09 12:23:01;;;;;;;49.08;45.90;;;12.00;93.10;;;;;;5055283;28;20041;-74
2022/03/09 12:25:44;;;;;;;48.47;45.53;;;12.20;92.20;;;;;;5005913;28;20309;-75
2022/03/09 12:28:27;;;;;;;47.50;44.65;;;12.10;91.70;;;;;;5021945;28;20503;-75
2022/03/09 12:30:59;;;;;;;47.72;44.80;;;12.00;91.70;;;;;;5033799;28;20076;-74
2022/03/09 12:33:37;;;;;;;46.97;44.17;;;11.90;91.50;;;;;;5032165;28;20099;-74
2022/03/09 12:36:07;;;;;;;45.47;42.78;;;12.10;91.30;;;;;;5029701;28;20126;-75
2022/03/09 12:38:56;;;;;;;47.20;44.05;;;12.10;90.30;;;;;;5020014;28;20048;-75
2022/03/09 12:41:37;;;;;;;47.00;44.00;;;12.20;91.70;;;;;;5010347;28;20076;-74
2022/03/09 12:44:05;;;;;;;44.63;41.92;;;12.20;90.20;;;;;;5019859;28;20249;-74
2022/03/09 12:46:33;;;;;;;44.97;42.17;;;12.20;87.70;;;;;;4996412;28;20052;-74
2022/03/09 12:49:04;;;;;;;46.35;43.30;;;12.30;90.20;;;;;;5018156;28;20053;-74